Time;durP1;ratioP1;P1;durP2;ratioP2;P2;SDS_P1;SDS_P2;PMS_P1;PMS_P2;Temp;Humidity;BMP_temperature;BMP_pressure;BME280_temperature;BME280_humidity;BME280_pressure;Samples;Min_cycle;Max_cycle;Signal;HPM_P1;HPM_P2
2022/06/01 00:00:11;;;;;;;1.90;1.80;;;20.50;40.20;;;;;;4977138;28;20240;-58
2022/06/01 00:02:37;;;;;;;1.80;1.70;;;20.50;40.20;;;;;;4975121;28;20632;-59
2022/06/01 00:05:04;;;;;;;1.50;1.40;;;20.50;40.20;;;;;;4977014;28;20855;-58
2022/06/01 00:07:30;;;;;;;1.80;1.70;;;20.40;40.10;;;;;;4976367;28;20450;-59
2022/06/01 00:09:56;;;;;;;1.73;1.63;;;20.50;40.20;;;;;;4973895;28;20422;-58
2022/06/01 00:12:22;;;;;;;1.70;1.60;;;20.50;40.20;;;;;;4976816;28;20275;-58
2022/06/01 00:14:48;;;;;;;1.70;1.60;;;20.50;40.30;;;;;;4975962;28;20473;-59
2022/06/01 00:17:16;;;;;;;1.70;1.60;;;20.50;40.20;;;;;;4977434;28;20494;-59
2022/06/01 00:19:42;;;;;;;3.23;1.80;;;20.50;40.20;;;;;;4975982;28;20225;-59
2022/06/01 00:22:14;;;;;;;2.00;1.90;;;20.50;40.20;;;;;;4979827;28;20459;-58
2022/06/01 00:24:42;;;;;;;1.70;1.60;;;20.40;40.10;;;;;;4984248;28;20471;-58
2022/06/01 00:27:09;;;;;;;2.00;1.90;;;20.50;40.10;;;;;;4985393;28;21057;-58
2022/06/01 00:29:36;;;;;;;2.10;2.00;;;20.40;40.10;;;;;;4978440;28;20450;-59
2022/06/01 00:32:02;;;;;;;1.90;1.80;;;20.50;40.20;;;;;;4986796;28;20797;-59
2022/06/01 00:34:28;;;;;;;1.80;1.70;;;20.40;40.10;;;;;;4983784;28;20450;-58
2022/06/01 00:36:54;;;;;;;10.13;2.03;;;20.50;40.20;;;;;;4977299;28;20450;-58
2022/06/01 00:39:19;;;;;;;1.67;1.57;;;20.40;40.10;;;;;;4988638;28;20220;-58
2022/06/01 00:41:45;;;;;;;2.13;1.93;;;20.50;40.20;;;;;;4981618;28;20527;-59
2022/06/01 00:44:11;;;;;;;1.70;1.60;;;20.50;40.20;;;;;;4985147;28;20220;-58
2022/06/01 00:46:36;;;;;;;2.10;1.80;;;20.50;40.10;;;;;;4986632;28;20217;-58
2022/06/01 00:49:18;;;;;;;1.80;1.70;;;20.50;40.20;;;;;;4980445;28;20225;-59
2022/06/01 00:51:45;;;;;;;1.90;1.80;;;20.40;40.10;;;;;;4983035;28;20237;-58
2022/06/01 00:54:11;;;;;;;1.70;1.60;;;20.50;40.10;;;;;;4984192;28;20425;-58
2022/06/01 00:56:46;;;;;;;1.97;1.87;;;20.50;40.10;;;;;;4978076;28;20451;-59
2022/06/01 00:59:16;;;;;;;1.77;1.67;;;20.40;40.00;;;;;;4985291;28;20529;-59
2022/06/01 01:01:43;;;;;;;1.87;1.77;;;20.40;40.00;;;;;;4981506;28;20887;-59
2022/06/01 01:04:10;;;;;;;1.80;1.63;;;20.40;40.00;;;;;;4980686;28;20959;-59
2022/06/01 01:06:38;;;;;;;1.63;1.53;;;20.40;40.00;;;;;;4983223;28;20470;-59
2022/06/01 01:09:05;;;;;;;1.90;1.80;;;20.40;40.00;;;;;;4979666;28;20446;-58
2022/06/01 01:11:40;;;;;;;1.80;1.70;;;20.40;40.00;;;;;;4981549;28;21054;-58
2022/06/01 01:14:06;;;;;;;1.80;1.70;;;20.40;40.10;;;;;;4981116;28;20452;-59
2022/06/01 01:16:34;;;;;;;1.80;1.70;;;20.50;40.10;;;;;;4977196;28;20529;-59
2022/06/01 01:19:00;;;;;;;1.80;1.70;;;20.40;40.00;;;;;;4982430;28;20447;-59
2022/06/01 01:21:59;;;;;;;1.80;1.70;;;20.40;40.00;;;;;;4980056;28;20467;-59
2022/06/01 01:24:41;;;;;;;1.83;1.73;;;20.40;40.00;;;;;;4978968;28;20479;-58
2022/06/01 01:27:07;;;;;;;1.90;1.80;;;20.40;39.80;;;;;;4978547;28;20463;-59
2022/06/01 01:29:38;;;;;;;1.90;1.80;;;20.50;40.00;;;;;;4978234;28;20413;-59
2022/06/01 01:32:06;;;;;;;1.93;1.83;;;20.40;39.90;;;;;;4979774;28;20654;-58
2022/06/01 01:34:33;;;;;;;1.67;1.57;;;20.40;39.90;;;;;;4976049;28;20422;-59
2022/06/01 01:37:04;;;;;;;1.87;1.77;;;20.40;39.80;;;;;;4975764;28;20948;-58
2022/06/01 01:39:32;;;;;;;1.73;1.50;;;20.50;39.90;;;;;;4975357;28;20469;-59
2022/06/01 01:41:58;;;;;;;1.90;1.80;;;20.40;39.80;;;;;;4974490;28;20915;-58
2022/06/01 01:44:46;;;;;;;1.77;1.67;;;20.40;39.90;;;;;;4977990;28;20433;-58
2022/06/01 01:47:12;;;;;;;1.83;1.73;;;20.40;39.70;;;;;;4984701;28;20248;-58
2022/06/01 01:49:39;;;;;;;1.70;1.60;;;20.40;39.70;;;;;;4977410;28;20447;-59
2022/06/01 01:52:13;;;;;;;1.77;1.67;;;20.40;39.70;;;;;;4985852;28;20446;-59
2022/06/01 01:55:06;;;;;;;1.70;1.60;;;20.40;39.80;;;;;;4980056;28;20481;-59
2022/06/01 01:57:42;;;;;;;1.67;1.57;;;20.40;39.80;;;;;;4980300;28;20446;-59
2022/06/01 02:00:36;;;;;;;1.70;1.60;;;20.40;39.80;;;;;;4986277;28;20462;-58
2022/06/01 02:03:04;;;;;;;1.80;1.70;;;20.40;39.70;;;;;;4978179;28;20517;-59
2022/06/01 02:06:09;;;;;;;1.60;1.50;;;20.40;39.70;;;;;;4985028;28;20451;-59
2022/06/01 02:08:48;;;;;;;1.80;1.70;;;20.50;39.80;;;;;;4980110;28;20804;-58
2022/06/01 02:14:38;;;;;;;2.03;1.93;;;20.40;39.90;;;;;;4985920;28;20995;-59
2022/06/01 02:17:08;;;;;;;1.83;1.73;;;20.40;40.00;;;;;;4977865;28;20467;-59
2022/06/01 02:19:42;;;;;;;1.57;1.47;;;20.40;39.90;;;;;;4983269;28;20459;-59
2022/06/01 02:22:10;;;;;;;1.70;1.60;;;20.40;39.90;;;;;;4979885;28;20455;-59
2022/06/01 02:24:37;;;;;;;1.67;1.57;;;20.40;39.90;;;;;;4978491;28;20505;-59
2022/06/01 02:27:03;;;;;;;2.40;2.00;;;20.40;40.70;;;;;;4982786;28;20454;-59
2022/06/01 02:29:39;;;;;;;1.67;1.57;;;20.40;39.90;;;;;;4977656;28;20455;-59
2022/06/01 02:32:06;;;;;;;1.47;1.37;;;20.40;39.90;;;;;;4981912;28;20238;-59
2022/06/01 02:34:33;;;;;;;1.63;1.53;;;20.40;40.00;;;;;;4980105;28;20508;-59
2022/06/01 02:37:04;;;;;;;1.60;1.50;;;20.40;40.00;;;;;;4977105;28;20971;-58
2022/06/01 02:39:31;;;;;;;1.77;1.67;;;20.40;40.00;;;;;;4978997;28;20462;-59
2022/06/01 02:42:30;;;;;;;1.80;1.70;;;20.40;39.90;;;;;;4978177;28;20441;-59
2022/06/01 02:45:08;;;;;;;1.70;1.60;;;20.40;39.90;;;;;;4981851;28;20435;-59
2022/06/01 02:47:37;;;;;;;1.60;1.50;;;20.40;40.00;;;;;;4977039;28;20457;-58
2022/06/01 02:50:05;;;;;;;2.00;1.90;;;20.40;39.90;;;;;;4976227;28;20433;-59
2022/06/01 02:52:31;;;;;;;1.40;1.30;;;20.40;39.90;;;;;;4978299;28;20929;-59
2022/06/01 02:54:57;;;;;;;1.50;1.40;;;20.40;39.90;;;;;;4975641;28;20417;-58
2022/06/01 02:57:23;;;;;;;1.60;1.50;;;20.40;39.90;;;;;;4977341;28;20224;-59
2022/06/01 02:59:50;;;;;;;1.70;1.60;;;20.40;40.00;;;;;;4974267;28;20646;-58
2022/06/01 03:02:15;;;;;;;1.73;1.63;;;20.40;39.90;;;;;;4973846;28;20502;-59
2022/06/01 03:04:45;;;;;;;1.77;1.67;;;20.40;40.00;;;;;;4976004;28;20474;-59
2022/06/01 03:07:12;;;;;;;1.90;1.80;;;20.40;39.90;;;;;;4976192;28;20228;-59
2022/06/01 03:09:38;;;;;;;1.67;1.57;;;20.40;39.90;;;;;;4977364;28;21095;-58
2022/06/01 03:12:05;;;;;;;1.60;1.50;;;20.40;40.00;;;;;;4983781;28;20447;-58
2022/06/01 03:14:31;;;;;;;1.50;1.40;;;20.40;39.90;;;;;;4981767;28;20229;-58
2022/06/01 03:16:57;;;;;;;1.70;1.60;;;20.40;39.90;;;;;;4974712;28;20410;-58
2022/06/01 03:19:24;;;;;;;1.60;1.50;;;20.40;40.00;;;;;;4986559;28;20489;-58
2022/06/01 03:21:50;;;;;;;1.77;1.67;;;20.40;40.00;;;;;;4979268;28;20478;-58
2022/06/01 03:24:16;;;;;;;1.53;1.43;;;20.40;40.00;;;;;;4979441;28;20565;-58
2022/06/01 03:26:42;;;;;;;1.50;1.40;;;20.40;40.00;;;;;;4980211;28;20220;-58
2022/06/01 03:29:07;;;;;;;1.63;1.53;;;20.40;40.00;;;;;;4992921;28;20232;-59
2022/06/01 03:31:33;;;;;;;1.60;1.50;;;20.40;39.90;;;;;;4978378;28;20432;-59
2022/06/01 03:33:59;;;;;;;1.53;1.43;;;20.40;40.00;;;;;;4983051;28;20216;-58
2022/06/01 03:36:25;;;;;;;1.50;1.40;;;20.40;40.00;;;;;;4976720;28;20221;-59
2022/06/01 03:38:51;;;;;;;1.50;1.40;;;20.40;40.10;;;;;;4980246;28;20232;-58
2022/06/01 03:41:16;;;;;;;1.73;1.63;;;20.40;40.10;;;;;;4979235;28;20478;-58
2022/06/01 03:46:26;;;;;;;1.50;1.40;;;20.40;40.00;;;;;;4981765;28;20792;-58
2022/06/01 03:48:52;;;;;;;1.37;1.27;;;20.40;40.10;;;;;;4978111;28;20541;-58
2022/06/01 03:51:18;;;;;;;1.63;1.53;;;20.40;40.00;;;;;;4975451;28;20250;-58
2022/06/01 03:53:43;;;;;;;1.50;1.40;;;20.40;40.00;;;;;;4980142;28;20232;-59
2022/06/01 03:56:09;;;;;;;1.63;1.53;;;20.40;40.10;;;;;;4976946;28;20245;-58
2022/06/01 03:58:36;;;;;;;1.50;1.40;;;20.40;40.00;;;;;;4978131;28;20212;-59
2022/06/01 04:01:05;;;;;;;1.63;1.53;;;20.40;40.00;;;;;;4978659;28;20259;-61
2022/06/01 04:03:31;;;;;;;1.70;1.60;;;20.40;40.00;;;;;;4974321;28;20447;-59
2022/06/01 04:05:56;;;;;;;1.50;1.40;;;20.40;40.00;;;;;;4978887;28;20431;-62
2022/06/01 04:08:22;;;;;;;1.60;1.50;;;20.40;40.90;;;;;;4976950;28;20225;-60
2022/06/01 04:10:49;;;;;;;1.47;1.37;;;20.40;40.10;;;;;;4976306;28;20224;-61
2022/06/01 04:13:15;;;;;;;1.50;1.40;;;20.40;40.10;;;;;;4977337;28;20225;-60
2022/06/01 04:15:41;;;;;;;1.57;1.47;;;20.40;40.20;;;;;;4974689;28;20986;-60
2022/06/01 04:18:07;;;;;;;1.63;1.53;;;20.40;40.20;;;;;;4976458;28;20455;-60
2022/06/01 04:20:33;;;;;;;1.73;1.63;;;20.40;40.30;;;;;;4988380;28;20462;-60
2022/06/01 04:23:00;;;;;;;1.90;1.60;;;20.40;40.30;;;;;;4973393;28;20233;-59
2022/06/01 04:25:27;;;;;;;1.40;1.30;;;20.40;40.40;;;;;;4976925;28;20319;-60
2022/06/01 04:27:53;;;;;;;1.50;1.40;;;20.40;40.50;;;;;;4971927;28;20810;-59
2022/06/01 04:30:20;;;;;;;1.60;1.50;;;20.40;40.50;;;;;;4975547;28;20443;-60
2022/06/01 04:32:48;;;;;;;1.67;1.57;;;20.40;40.60;;;;;;4982522;28;20697;-59
2022/06/01 04:35:14;;;;;;;1.47;1.37;;;20.40;40.60;;;;;;4979433;28;20454;-60
2022/06/01 04:37:39;;;;;;;1.50;1.40;;;20.40;40.70;;;;;;4990916;28;20474;-64
2022/06/01 04:40:06;;;;;;;1.63;1.53;;;20.40;40.60;;;;;;4984494;28;20476;-63
2022/06/01 04:42:34;;;;;;;1.70;1.60;;;20.40;40.70;;;;;;4977187;28;20229;-63
2022/06/01 04:45:00;;;;;;;1.70;1.60;;;20.40;40.70;;;;;;4983969;28;20473;-63
2022/06/01 04:47:25;;;;;;;1.50;1.40;;;20.50;40.80;;;;;;4982908;28;20931;-61
2022/06/01 04:49:51;;;;;;;1.73;1.63;;;20.50;40.80;;;;;;4975595;28;20230;-61
2022/06/01 04:52:16;;;;;;;1.57;1.47;;;20.50;40.70;;;;;;4981357;28;20227;-61
2022/06/01 04:54:42;;;;;;;1.43;1.33;;;20.50;40.70;;;;;;4980820;28;20709;-61
2022/06/01 04:57:08;;;;;;;2.40;1.60;;;20.60;40.80;;;;;;4974030;28;20228;-60
2022/06/01 04:59:34;;;;;;;1.73;1.30;;;20.60;40.80;;;;;;4982477;28;20232;-60
2022/06/01 05:01:59;;;;;;;1.57;1.47;;;20.60;40.70;;;;;;4979602;28;20293;-59
2022/06/01 05:04:28;;;;;;;1.93;1.83;;;20.60;40.70;;;;;;4978205;28;20216;-60
2022/06/01 05:06:58;;;;;;;1.80;1.70;;;20.60;40.70;;;;;;4985408;28;20232;-59
2022/06/01 05:09:24;;;;;;;1.70;1.60;;;20.60;40.70;;;;;;4980259;28;20482;-59
2022/06/01 05:11:49;;;;;;;1.70;1.60;;;20.60;40.80;;;;;;4980184;28;20459;-59
2022/06/01 05:14:15;;;;;;;1.90;1.80;;;20.60;40.80;;;;;;4983509;28;20965;-60
2022/06/01 05:16:40;;;;;;;1.30;1.20;;;20.60;40.80;;;;;;4978112;28;20316;-59
2022/06/01 05:19:06;;;;;;;1.40;1.30;;;20.60;40.80;;;;;;4981440;28;20307;-59
2022/06/01 05:21:32;;;;;;;1.50;1.40;;;20.60;40.80;;;;;;4981303;28;20236;-60
2022/06/01 05:23:57;;;;;;;1.60;1.50;;;20.60;40.90;;;;;;4979748;28;20225;-59
2022/06/01 05:26:23;;;;;;;2.10;1.33;;;20.60;40.90;;;;;;4981121;28;20744;-59
2022/06/01 05:28:49;;;;;;;1.60;1.50;;;20.60;41.00;;;;;;4979606;28;20593;-59
2022/06/01 05:31:15;;;;;;;1.43;1.33;;;20.60;41.00;;;;;;4979374;28;20584;-60
2022/06/01 05:33:43;;;;;;;1.60;1.50;;;20.60;41.00;;;;;;4978588;28;20232;-61
2022/06/01 05:36:09;;;;;;;1.80;1.67;;;20.60;41.00;;;;;;4979586;28;20450;-60
2022/06/01 05:38:35;;;;;;;1.70;1.60;;;20.60;41.00;;;;;;4982806;28;20456;-60
2022/06/01 05:41:01;;;;;;;1.77;1.67;;;20.60;41.10;;;;;;4984215;28;20440;-59
2022/06/01 05:43:27;;;;;;;2.50;2.30;;;20.60;41.10;;;;;;4976791;28;20224;-60
2022/06/01 05:45:52;;;;;;;2.33;2.20;;;20.60;41.10;;;;;;4977446;28;20458;-60
2022/06/01 05:48:20;;;;;;;2.30;2.20;;;20.60;41.10;;;;;;4975013;28;20224;-59
2022/06/01 05:50:45;;;;;;;3.13;2.33;;;20.60;41.10;;;;;;4976578;28;20272;-59
2022/06/01 05:53:11;;;;;;;10.00;7.00;;;20.60;41.10;;;;;;4984368;28;20802;-59
2022/06/01 05:55:38;;;;;;;5.03;4.13;;;20.60;40.80;;;;;;4982622;28;20231;-59
2022/06/01 05:58:16;;;;;;;4.10;3.70;;;20.60;40.80;;;;;;4977242;28;20250;-59
2022/06/01 06:00:43;;;;;;;3.30;3.00;;;20.60;40.80;;;;;;4985628;28;20809;-58
2022/06/01 06:03:09;;;;;;;3.90;3.60;;;20.60;40.80;;;;;;4978546;28;20981;-60
2022/06/01 06:08:34;;;;;;;7.33;4.70;;;20.60;40.80;;;;;;4982498;28;20232;-60
2022/06/01 06:10:59;;;;;;;9.50;5.60;;;20.60;40.90;;;;;;4982606;28;20454;-60
2022/06/01 06:13:25;;;;;;;8.80;4.93;;;20.60;40.50;;;;;;4987156;28;20422;-58
2022/06/01 06:15:50;;;;;;;7.00;4.47;;;20.60;40.10;;;;;;4979909;28;20316;-58
2022/06/01 06:18:16;;;;;;;6.23;5.60;;;20.60;39.70;;;;;;4978599;28;20281;-58
2022/06/01 06:20:44;;;;;;;5.63;5.13;;;20.60;39.70;;;;;;4985304;28;20233;-58
2022/06/01 06:23:10;;;;;;;5.70;5.10;;;20.60;39.70;;;;;;4979036;28;20491;-58
2022/06/01 06:25:36;;;;;;;5.40;4.90;;;20.60;39.70;;;;;;4982581;28;20577;-58
2022/06/01 06:28:01;;;;;;;4.67;4.23;;;20.60;39.70;;;;;;4985613;28;21139;-58
2022/06/01 06:30:27;;;;;;;4.87;4.03;;;20.60;39.70;;;;;;4980472;28;20225;-60
2022/06/01 06:32:53;;;;;;;5.03;4.00;;;20.60;39.70;;;;;;4982388;28;20655;-59
2022/06/01 06:35:19;;;;;;;4.43;3.70;;;20.50;39.50;;;;;;4981235;28;20239;-58
2022/06/01 06:37:44;;;;;;;4.17;3.77;;;20.50;40.00;;;;;;4976236;28;20233;-58
2022/06/01 06:40:11;;;;;;;3.43;3.13;;;20.50;39.10;;;;;;4973927;28;20216;-58
2022/06/01 06:42:37;;;;;;;3.50;3.30;;;20.50;39.20;;;;;;4978923;28;20283;-59
2022/06/01 06:45:03;;;;;;;3.80;3.30;;;20.50;39.40;;;;;;4977564;28;20443;-59
2022/06/01 06:47:32;;;;;;;4.00;3.63;;;20.50;39.50;;;;;;4981166;28;20783;-58
2022/06/01 06:49:58;;;;;;;3.83;3.23;;;20.50;39.70;;;;;;4977644;28;20451;-58
2022/06/01 06:52:23;;;;;;;3.43;3.20;;;20.50;39.70;;;;;;4978571;28;20947;-58
2022/06/01 06:54:49;;;;;;;2.83;2.63;;;20.50;39.70;;;;;;4989590;28;20509;-58
2022/06/01 06:57:15;;;;;;;3.23;3.03;;;20.50;39.70;;;;;;4975681;28;20214;-59
2022/06/01 06:59:40;;;;;;;3.50;3.07;;;20.50;39.30;;;;;;4978639;28;20240;-58
2022/06/01 07:02:06;;;;;;;2.63;2.43;;;20.50;39.10;;;;;;4980335;28;20256;-60
2022/06/01 07:04:31;;;;;;;2.63;2.43;;;20.50;38.90;;;;;;4980860;28;20232;-59
2022/06/01 07:06:57;;;;;;;2.90;2.70;;;20.50;38.80;;;;;;4980066;28;20245;-59
2022/06/01 07:09:23;;;;;;;2.83;2.63;;;20.50;38.70;;;;;;4979910;28;20375;-59
2022/06/01 07:11:48;;;;;;;3.27;2.97;;;20.50;38.70;;;;;;4980044;28;20456;-59
2022/06/01 07:14:14;;;;;;;3.93;2.80;;;20.50;38.70;;;;;;4982413;28;20590;-59
2022/06/01 07:16:40;;;;;;;2.40;2.30;;;20.50;38.60;;;;;;4978565;28;20674;-59
2022/06/01 07:19:08;;;;;;;2.90;2.50;;;20.50;38.50;;;;;;4980689;28;20442;-58
2022/06/01 07:21:36;;;;;;;3.83;2.93;;;20.50;38.40;;;;;;4981945;28;20233;-59
2022/06/01 07:24:05;;;;;;;2.53;2.20;;;20.50;38.40;;;;;;4975170;28;20450;-59
2022/06/01 07:26:37;;;;;;;2.63;2.13;;;20.50;38.30;;;;;;4983426;28;20537;-59
2022/06/01 07:29:04;;;;;;;2.10;1.93;;;20.50;38.30;;;;;;4979321;28;20805;-58
2022/06/01 07:31:30;;;;;;;2.67;2.33;;;20.50;38.20;;;;;;4977668;28;20457;-59
2022/06/01 07:33:58;;;;;;;3.00;2.30;;;20.50;38.10;;;;;;4984800;28;20458;-58
2022/06/01 07:36:25;;;;;;;2.23;2.13;;;20.50;38.10;;;;;;4978300;28;20873;-59
2022/06/01 07:44:37;;;;;;;2.00;1.90;;;20.50;38.10;;;;;;4976663;28;20516;-59
2022/06/01 07:47:03;;;;;;;2.57;2.37;;;20.50;38.20;;;;;;4988514;28;20493;-58
2022/06/01 07:49:29;;;;;;;2.57;2.37;;;20.50;38.50;;;;;;4978488;28;20509;-59
2022/06/01 07:51:55;;;;;;;2.30;2.20;;;20.50;38.60;;;;;;4977423;28;20455;-59
2022/06/01 07:54:21;;;;;;;2.30;2.10;;;20.50;38.80;;;;;;4982209;28;20221;-58
2022/06/01 07:56:46;;;;;;;2.40;2.20;;;20.50;38.90;;;;;;4976166;28;20701;-58
2022/06/01 07:59:13;;;;;;;3.23;2.43;;;20.50;39.00;;;;;;4979343;28;21010;-59
2022/06/01 08:01:39;;;;;;;2.47;2.20;;;20.50;39.10;;;;;;4979611;28;20240;-59
2022/06/01 08:04:06;;;;;;;2.27;2.07;;;20.50;39.30;;;;;;4974797;28;20445;-59
2022/06/01 08:06:33;;;;;;;2.40;2.23;;;20.50;39.50;;;;;;4979264;28;20455;-59
2022/06/01 08:08:59;;;;;;;2.47;2.27;;;20.50;39.70;;;;;;4978521;28;20526;-58
2022/06/01 08:14:11;;;;;;;2.23;2.03;;;20.50;39.70;;;;;;4978449;28;20239;-59
2022/06/01 08:16:38;;;;;;;2.13;2.03;;;20.50;39.70;;;;;;4975349;28;20455;-59
2022/06/01 08:19:04;;;;;;;2.17;2.00;;;20.50;39.70;;;;;;4979189;28;20447;-58
2022/06/01 08:21:31;;;;;;;2.90;2.30;;;20.50;39.70;;;;;;4975577;28;20548;-59
2022/06/01 08:23:56;;;;;;;2.33;2.23;;;20.40;39.60;;;;;;4973641;28;20614;-59
2022/06/01 08:26:22;;;;;;;2.47;2.17;;;20.50;39.70;;;;;;4976915;28;20921;-59
2022/06/01 08:28:48;;;;;;;2.00;1.90;;;20.40;39.60;;;;;;4973667;28;20365;-58
2022/06/01 08:31:14;;;;;;;2.43;2.33;;;20.50;39.70;;;;;;4990871;28;20220;-59
2022/06/01 08:33:39;;;;;;;2.87;2.53;;;20.50;39.70;;;;;;4972407;28;20225;-59
2022/06/01 08:36:05;;;;;;;2.00;1.90;;;20.50;39.70;;;;;;4972035;28;20978;-59
2022/06/01 08:38:31;;;;;;;2.40;2.20;;;20.50;39.70;;;;;;4980736;28;20303;-59
2022/06/01 08:41:09;;;;;;;2.50;2.10;;;20.40;39.60;;;;;;4987005;28;20226;-59
2022/06/01 08:43:49;;;;;;;2.40;2.20;;;20.50;39.80;;;;;;4980328;28;20229;-58
2022/06/01 08:46:16;;;;;;;1.87;1.77;;;20.40;39.80;;;;;;4984333;28;20452;-59
2022/06/01 08:49:13;;;;;;;1.80;1.70;;;20.40;39.90;;;;;;4983140;28;20943;-59
2022/06/01 08:51:38;;;;;;;2.00;1.90;;;20.40;39.90;;;;;;4979308;28;20455;-59
2022/06/01 08:54:04;;;;;;;2.30;2.20;;;20.40;40.00;;;;;;4988404;28;20929;-61
2022/06/01 08:56:44;;;;;;;3.00;2.10;;;20.40;40.20;;;;;;4981210;28;20220;-59
2022/06/01 08:59:34;;;;;;;2.43;2.23;;;20.50;40.20;;;;;;4984256;28;20236;-59
2022/06/01 09:02:05;;;;;;;3.37;2.27;;;20.40;40.20;;;;;;4983964;28;20504;-59
2022/06/01 09:04:56;;;;;;;2.50;2.03;;;20.40;40.30;;;;;;4993152;28;20458;-59
2022/06/01 09:07:40;;;;;;;2.20;2.10;;;20.40;40.30;;;;;;4999987;28;20432;-59
2022/06/01 09:10:35;;;;;;;2.23;2.13;;;20.40;40.30;;;;;;4980188;28;20454;-59
2022/06/01 09:13:10;;;;;;;2.13;2.03;;;20.40;40.30;;;;;;4986714;28;20450;-59
2022/06/01 09:15:45;;;;;;;2.47;2.27;;;20.40;40.40;;;;;;4983005;28;20545;-59
2022/06/01 09:18:12;;;;;;;1.80;1.70;;;20.40;40.50;;;;;;4974920;28;20465;-59
2022/06/01 09:23:22;;;;;;;1.97;1.87;;;20.40;40.50;;;;;;4980489;28;20533;-59
2022/06/01 09:25:54;;;;;;;2.00;1.90;;;20.40;41.30;;;;;;4979928;28;20451;-59
2022/06/01 09:28:24;;;;;;;2.00;1.90;;;20.40;40.50;;;;;;4982567;28;20227;-59
2022/06/01 09:30:55;;;;;;;2.30;2.20;;;20.40;40.50;;;;;;4977129;28;20550;-60
2022/06/01 09:33:24;;;;;;;1.80;1.70;;;20.40;40.30;;;;;;4981802;28;20597;-59
2022/06/01 09:36:26;;;;;;;2.20;2.00;;;20.40;40.20;;;;;;4979736;28;20489;-59
2022/06/01 09:38:58;;;;;;;2.10;2.00;;;20.40;40.20;;;;;;4978142;28;20446;-59
2022/06/01 09:41:24;;;;;;;2.03;1.93;;;20.40;40.20;;;;;;4980356;28;20462;-58
2022/06/01 09:43:57;;;;;;;2.23;2.13;;;20.40;40.30;;;;;;4976933;28;20459;-59
2022/06/01 09:46:40;;;;;;;2.27;1.97;;;20.40;40.20;;;;;;4976179;28;20213;-58
2022/06/01 09:49:21;;;;;;;1.80;1.70;;;20.40;40.30;;;;;;4979078;28;21224;-59
2022/06/01 09:51:52;;;;;;;2.13;2.00;;;20.40;40.30;;;;;;4978301;28;20425;-59
2022/06/01 09:54:23;;;;;;;2.10;2.00;;;20.40;40.30;;;;;;4975600;28;20422;-58
2022/06/01 09:56:49;;;;;;;2.20;2.10;;;20.40;40.40;;;;;;4978032;28;20466;-59
2022/06/01 10:07:43;;;;;;;1.93;1.83;;;20.40;40.50;;;;;;4985933;28;20997;-59
2022/06/01 10:10:22;;;;;;;1.80;1.70;;;20.40;40.50;;;;;;4979462;28;20530;-57
2022/06/01 10:12:56;;;;;;;2.17;1.97;;;20.40;40.60;;;;;;4988614;28;20605;-57
2022/06/01 10:15:30;;;;;;;2.20;2.10;;;20.30;40.50;;;;;;4984292;28;20889;-59
2022/06/01 10:18:13;;;;;;;2.20;2.10;;;20.30;40.50;;;;;;4987444;28;20457;-59
2022/06/01 10:20:52;;;;;;;2.30;1.93;;;20.40;40.60;;;;;;4987245;28;20525;-59
2022/06/01 10:23:35;;;;;;;1.90;1.80;;;20.30;40.50;;;;;;4986024;28;20524;-58
2022/06/01 10:26:24;;;;;;;2.37;2.23;;;20.40;40.60;;;;;;4984064;28;20550;-58
2022/06/01 10:28:58;;;;;;;2.13;2.03;;;20.40;40.60;;;;;;4981250;28;20574;-58
2022/06/01 10:31:36;;;;;;;2.77;2.13;;;20.40;40.70;;;;;;4976857;28;20438;-58
2022/06/01 10:34:15;;;;;;;2.50;2.30;;;20.30;40.50;;;;;;4986796;28;20978;-59
2022/06/01 10:36:51;;;;;;;2.00;1.90;;;20.30;40.60;;;;;;4983795;28;20479;-59
2022/06/01 10:39:23;;;;;;;2.20;2.10;;;20.30;40.60;;;;;;4985636;28;20461;-58
2022/06/01 10:42:00;;;;;;;2.10;2.00;;;20.30;40.60;;;;;;4982736;28;20490;-58
2022/06/01 10:44:58;;;;;;;2.50;2.30;;;20.30;40.70;;;;;;4983166;28;20457;-58
2022/06/01 10:47:43;;;;;;;2.20;2.10;;;20.40;40.70;;;;;;4984310;28;20454;-58
2022/06/01 10:50:16;;;;;;;2.33;2.20;;;20.30;40.70;;;;;;4979707;28;20490;-58
2022/06/01 10:52:46;;;;;;;1.90;1.80;;;20.40;40.80;;;;;;4979821;28;20509;-58
2022/06/01 10:55:17;;;;;;;2.77;2.50;;;20.30;40.80;;;;;;4985248;28;20463;-58
2022/06/01 10:57:45;;;;;;;2.37;2.20;;;20.30;40.80;;;;;;4978543;28;21756;-58
2022/06/01 11:00:26;;;;;;;2.40;2.20;;;20.40;40.80;;;;;;4981635;28;20459;-58
2022/06/01 11:03:12;;;;;;;1.90;1.80;;;20.30;40.70;;;;;;4982151;28;20536;-58
2022/06/01 11:06:02;;;;;;;1.93;1.80;;;20.30;40.70;;;;;;4976695;28;20457;-58
2022/06/01 11:08:52;;;;;;;1.93;1.83;;;20.30;40.80;;;;;;4980805;28;20917;-58
2022/06/01 11:11:43;;;;;;;2.13;2.03;;;20.30;40.80;;;;;;4977786;28;20538;-58
2022/06/01 11:14:29;;;;;;;2.33;2.23;;;20.30;40.80;;;;;;4964645;28;20444;-58
2022/06/01 11:17:01;;;;;;;1.97;1.87;;;20.30;40.80;;;;;;4975525;28;20977;-58
2022/06/01 11:19:48;;;;;;;2.07;1.97;;;20.30;40.80;;;;;;4976658;28;20458;-58
2022/06/01 11:22:20;;;;;;;1.97;1.87;;;20.30;40.80;;;;;;4975876;28;21079;-58
2022/06/01 11:24:57;;;;;;;2.10;2.00;;;20.30;40.80;;;;;;4976165;28;20506;-58
2022/06/01 11:27:49;;;;;;;2.17;1.97;;;20.30;40.80;;;;;;4984052;28;20454;-58
2022/06/01 11:30:20;;;;;;;1.90;1.80;;;20.30;40.80;;;;;;4982072;28;20850;-59
2022/06/01 11:33:03;;;;;;;2.10;2.00;;;20.30;40.70;;;;;;4988632;28;20967;-59
2022/06/01 11:35:33;;;;;;;2.13;2.03;;;20.30;40.80;;;;;;4983497;28;20458;-59
2022/06/01 11:38:05;;;;;;;2.20;2.10;;;20.30;40.80;;;;;;4975158;28;20805;-59
2022/06/01 11:40:39;;;;;;;2.20;2.07;;;20.30;40.80;;;;;;4984177;28;20967;-59
2022/06/01 11:43:27;;;;;;;1.90;1.80;;;20.30;40.80;;;;;;4979094;28;20473;-59
2022/06/01 11:45:58;;;;;;;2.03;1.93;;;20.30;40.80;;;;;;4979858;28;20446;-58
2022/06/01 11:48:33;;;;;;;2.03;1.93;;;20.30;40.80;;;;;;4983653;28;20452;-59
2022/06/01 11:51:08;;;;;;;1.93;1.83;;;20.30;40.80;;;;;;4975755;28;20511;-59
2022/06/01 11:53:45;;;;;;;2.40;2.10;;;20.30;40.80;;;;;;4984036;28;20454;-58
2022/06/01 11:56:28;;;;;;;2.10;2.00;;;20.30;40.80;;;;;;4979598;28;20535;-58
2022/06/01 11:59:03;;;;;;;1.97;1.87;;;20.30;40.80;;;;;;4979643;28;20450;-59
2022/06/01 12:01:45;;;;;;;2.10;2.00;;;20.30;40.80;;;;;;4982068;28;20462;-58
2022/06/01 12:04:41;;;;;;;2.00;1.90;;;20.30;40.80;;;;;;4976066;28;20456;-58
2022/06/01 12:07:13;;;;;;;2.00;1.90;;;20.30;40.80;;;;;;4973350;28;20467;-58
2022/06/01 12:09:50;;;;;;;2.20;2.10;;;20.30;41.60;;;;;;4978363;28;20434;-59
2022/06/01 12:12:34;;;;;;;1.90;1.80;;;20.30;40.90;;;;;;4976743;28;20848;-59
2022/06/01 12:15:17;;;;;;;2.40;2.20;;;20.30;40.80;;;;;;4982660;28;20949;-59
2022/06/01 12:18:11;;;;;;;1.83;1.73;;;20.30;40.90;;;;;;4978376;28;20459;-59
2022/06/01 12:20:37;;;;;;;1.90;1.80;;;20.30;40.90;;;;;;4983146;28;20823;-59
2022/06/01 12:28:57;;;;;;;3.60;1.90;;;20.30;41.70;;;;;;4979237;28;20888;-59
2022/06/01 12:32:00;;;;;;;1.80;1.70;;;20.30;40.80;;;;;;4977712;28;20459;-58
2022/06/01 12:34:30;;;;;;;2.00;1.90;;;20.30;40.80;;;;;;4977611;28;20447;-59
2022/06/01 12:36:59;;;;;;;2.03;1.93;;;20.30;40.80;;;;;;4979863;28;20446;-58
2022/06/01 12:39:40;;;;;;;2.03;1.83;;;20.30;40.80;;;;;;4979694;28;20960;-58
2022/06/01 12:42:11;;;;;;;2.00;1.90;;;20.30;40.80;;;;;;4976052;28;20513;-58
2022/06/01 12:44:39;;;;;;;2.13;2.03;;;20.30;40.80;;;;;;4975259;28;20505;-59
2022/06/01 12:47:05;;;;;;;2.40;2.20;;;20.30;40.80;;;;;;4987513;28;20809;-59
2022/06/01 12:49:37;;;;;;;2.33;2.13;;;20.30;40.80;;;;;;4983923;28;20454;-58
2022/06/01 12:52:03;;;;;;;2.30;2.10;;;20.30;40.80;;;;;;4980350;28;20451;-58
2022/06/01 12:54:41;;;;;;;2.00;1.90;;;20.30;40.80;;;;;;4988982;28;20506;-59
2022/06/01 12:57:21;;;;;;;2.70;1.90;;;20.30;40.90;;;;;;4981367;28;20455;-59
2022/06/01 12:59:56;;;;;;;2.63;1.90;;;20.30;40.80;;;;;;4986613;28;20449;-59
2022/06/01 13:02:22;;;;;;;3.00;2.00;;;20.30;40.90;;;;;;4983561;28;20472;-59
2022/06/01 13:04:56;;;;;;;1.90;1.80;;;20.30;40.80;;;;;;4977663;28;20452;-58
2022/06/01 13:07:44;;;;;;;2.50;1.73;;;20.30;40.80;;;;;;4986730;28;20438;-59
2022/06/01 13:10:19;;;;;;;2.30;1.70;;;20.30;40.80;;;;;;4981258;28;20446;-58
2022/06/01 13:12:45;;;;;;;2.10;1.80;;;20.30;40.80;;;;;;4982685;28;20461;-58
2022/06/01 13:15:28;;;;;;;2.37;2.17;;;20.30;40.90;;;;;;4986224;28;20447;-58
2022/06/01 13:18:00;;;;;;;1.77;1.67;;;20.30;40.80;;;;;;4978392;28;20236;-58
2022/06/01 13:20:31;;;;;;;2.00;1.90;;;20.30;40.80;;;;;;4985918;28;20505;-58
2022/06/01 13:22:58;;;;;;;2.10;2.00;;;20.30;40.80;;;;;;4982646;28;20514;-58
2022/06/01 13:25:30;;;;;;;1.90;1.80;;;20.20;40.80;;;;;;4978960;28;20481;-59
2022/06/01 13:27:55;;;;;;;3.03;1.80;;;20.30;40.80;;;;;;4983313;28;20465;-58
2022/06/01 13:30:21;;;;;;;2.17;2.00;;;20.20;40.80;;;;;;4980998;28;20810;-58
2022/06/01 13:32:50;;;;;;;4.13;1.67;;;20.30;40.80;;;;;;4980052;28;20228;-58
2022/06/01 13:35:26;;;;;;;1.83;1.73;;;20.20;40.70;;;;;;4982180;28;20446;-58
2022/06/01 13:37:54;;;;;;;1.87;1.77;;;20.30;40.70;;;;;;4977431;28;20458;-60
2022/06/01 13:40:49;;;;;;;2.10;2.00;;;20.20;40.70;;;;;;4981804;28;20596;-59